createdAt,value
2019-01-08T00:00:21.981Z,6.35
2019-01-08T00:03:29.114Z,8.28
2019-01-08T00:06:36.355Z,6.08
2019-01-08T00:09:43.326Z,5.60
2019-01-08T00:12:50.296Z,7.08
2019-01-08T00:15:57.271Z,4.87
2019-01-08T00:19:04.224Z,5.80
2019-01-08T00:22:11.251Z,5.10
2019-01-08T00:25:18.190Z,5.00
2019-01-08T00:28:25.165Z,5.08
2019-01-08T00:31:34.139Z,5.22
2019-01-08T00:34:40.800Z,6.95
2019-01-08T00:37:47.762Z,6.75
2019-01-08T00:40:54.721Z,4.15
2019-01-08T00:44:01.667Z,5.17
2019-01-08T00:47:08.648Z,6.15
2019-01-08T00:50:15.924Z,6.00
2019-01-08T00:53:22.881Z,4.72
2019-01-08T00:56:29.831Z,5.10
2019-01-08T00:59:37.097Z,4.92
2019-01-08T01:02:44.078Z,4.40
2019-01-08T01:05:51.106Z,4.25
2019-01-08T01:08:58.047Z,5.15
2019-01-08T01:12:05.027Z,4.75
2019-01-08T01:15:11.976Z,4.97
2019-01-08T01:18:18.925Z,3.77
2019-01-08T01:21:25.894Z,4.22
2019-01-08T01:24:34.708Z,4.15
2019-01-08T01:27:41.650Z,4.58
2019-01-08T01:30:48.626Z,5.50
2019-01-08T01:33:55.562Z,5.45
2019-01-08T01:37:02.522Z,4.60
2019-01-08T01:40:09.629Z,3.65
2019-01-08T01:43:16.663Z,4.65
2019-01-08T01:46:23.617Z,4.53
2019-01-08T01:49:30.740Z,5.12
2019-01-08T01:52:38.782Z,6.12
2019-01-08T01:55:45.765Z,4.37
2019-01-08T01:58:52.744Z,5.10
2019-01-08T02:01:59.786Z,5.33
2019-01-08T02:05:06.840Z,5.08
2019-01-08T02:08:13.907Z,5.22
2019-01-08T02:11:20.823Z,3.75
2019-01-08T02:14:27.842Z,5.45
2019-01-08T02:17:37.628Z,4.08
2019-01-08T02:20:44.621Z,3.98
2019-01-08T02:23:51.551Z,4.37
2019-01-08T02:26:58.564Z,4.15
2019-01-08T02:30:05.935Z,4.20
2019-01-08T02:33:13.014Z,4.53
2019-01-08T02:36:19.995Z,3.60
2019-01-08T02:39:26.944Z,3.42
2019-01-08T02:42:34.383Z,4.62
2019-01-08T02:45:41.413Z,5.17
2019-01-08T02:48:48.343Z,4.35
2019-01-08T02:51:55.319Z,4.15
2019-01-08T02:55:02.742Z,3.30
2019-01-08T02:58:09.756Z,3.40
2019-01-08T03:01:16.773Z,4.20
2019-01-08T03:04:23.766Z,3.80
2019-01-08T03:07:30.760Z,3.75
2019-01-08T03:10:39.373Z,3.05
2019-01-08T03:13:46.334Z,3.52
2019-01-08T03:16:53.348Z,3.20
2019-01-08T03:20:00.285Z,3.00
2019-01-08T03:23:07.315Z,3.15
2019-01-08T03:26:14.248Z,2.30
2019-01-08T03:29:21.246Z,3.52
2019-01-08T03:32:28.232Z,2.83
2019-01-08T03:35:35.669Z,4.00
2019-01-08T03:38:42.611Z,4.30
2019-01-08T03:41:49.705Z,2.80
2019-01-08T03:44:56.669Z,2.65
2019-01-08T03:48:03.667Z,2.70
2019-01-08T03:51:10.649Z,3.15
2019-01-08T03:54:17.630Z,3.10
2019-01-08T03:57:25.075Z,2.80
2019-01-08T04:00:34.408Z,3.30
2019-01-08T04:03:41.442Z,2.75
2019-01-08T04:06:48.442Z,3.55
2019-01-08T04:09:55.425Z,2.98
2019-01-08T04:13:02.401Z,2.60
2019-01-08T04:16:09.394Z,2.47
2019-01-08T04:19:16.409Z,2.60
2019-01-08T04:22:23.383Z,2.40
2019-01-08T04:25:30.378Z,3.17
2019-01-08T04:28:37.377Z,2.47
2019-01-08T04:31:44.338Z,3.52
2019-01-08T04:34:51.292Z,4.50
2019-01-08T04:37:58.291Z,3.00
2019-01-08T04:41:05.253Z,2.35
2019-01-08T04:44:12.206Z,2.60
2019-01-08T04:47:19.150Z,2.65
2019-01-08T04:50:26.153Z,2.35
2019-01-08T04:53:34.380Z,3.20
2019-01-08T04:56:41.370Z,2.75
2019-01-08T04:59:48.554Z,3.25
2019-01-08T05:02:55.515Z,3.35
2019-01-08T05:06:02.759Z,3.00
2019-01-08T05:09:09.745Z,3.10
2019-01-08T05:12:16.703Z,2.87
2019-01-08T05:15:23.691Z,2.90
2019-01-08T05:18:30.651Z,3.15
2019-01-08T05:21:39.272Z,3.08
2019-01-08T05:24:47.757Z,2.55
2019-01-08T05:27:54.754Z,3.10
2019-01-08T05:31:01.708Z,3.08
2019-01-08T05:34:08.702Z,3.50
2019-01-08T05:37:15.632Z,3.00
2019-01-08T05:40:22.621Z,2.80
2019-01-08T05:43:29.555Z,3.15
2019-01-08T05:46:37.227Z,3.42
2019-01-08T05:49:44.170Z,3.35
2019-01-08T05:52:51.142Z,3.10
2019-01-08T05:55:58.100Z,3.85
2019-01-08T05:59:05.070Z,3.00
2019-01-08T06:02:13.116Z,3.15
2019-01-08T06:05:20.096Z,3.37
2019-01-08T06:08:27.031Z,3.27
2019-01-08T06:11:37.144Z,2.95
2019-01-08T06:14:44.123Z,3.25
2019-01-08T06:17:51.093Z,3.30
2019-01-08T06:20:58.258Z,3.67
2019-01-08T06:24:05.255Z,3.17
2019-01-08T06:27:12.203Z,3.30
2019-01-08T06:30:24.732Z,3.72
2019-01-08T06:33:27.874Z,4.25
2019-01-08T06:36:37.812Z,3.98
2019-01-08T06:39:44.756Z,4.35
2019-01-08T06:42:51.842Z,3.30
2019-01-08T06:45:59.913Z,4.08
2019-01-08T06:49:07.004Z,3.67
2019-01-08T06:52:14.020Z,3.77
2019-01-08T06:55:20.985Z,3.83
2019-01-08T06:58:27.935Z,3.62
2019-01-08T07:01:34.995Z,4.40
2019-01-08T07:04:42.097Z,3.72
2019-01-08T07:07:49.148Z,2.90
2019-01-08T07:10:56.064Z,3.50
2019-01-08T07:14:03.036Z,3.50
2019-01-08T07:17:10.033Z,2.98
2019-01-08T07:20:17.021Z,3.42
2019-01-08T07:23:25.034Z,4.22
2019-01-08T07:26:33.226Z,3.65
2019-01-08T07:29:40.141Z,3.12
2019-01-08T07:32:47.123Z,2.85
2019-01-08T07:35:54.245Z,2.98
2019-01-08T07:39:01.294Z,3.17
2019-01-08T07:42:08.278Z,3.22
2019-01-08T07:45:15.250Z,2.77
2019-01-08T07:48:22.435Z,2.83
2019-01-08T07:51:29.391Z,5.20
2019-01-08T07:54:37.086Z,3.75
2019-01-08T07:57:44.124Z,3.50
2019-01-08T08:00:51.070Z,3.50
2019-01-08T08:03:58.044Z,3.40
2019-01-08T08:07:05.333Z,3.50
2019-01-08T08:10:12.341Z,3.60
2019-01-08T08:13:19.568Z,4.33
2019-01-08T08:16:26.535Z,3.20
2019-01-08T08:19:34.369Z,3.15
2019-01-08T08:22:41.355Z,3.45
2019-01-08T08:25:48.361Z,3.75
2019-01-08T08:28:55.316Z,4.58
2019-01-08T08:32:02.231Z,2.98
2019-01-08T08:35:09.245Z,4.20
2019-01-08T08:38:16.166Z,4.60
2019-01-08T08:41:24.753Z,3.65
2019-01-08T08:44:31.710Z,3.40
2019-01-08T08:47:38.900Z,4.30
2019-01-08T08:50:45.851Z,3.67
2019-01-08T08:53:52.986Z,3.85
2019-01-08T08:57:00.057Z,5.83
2019-01-08T09:00:08.511Z,3.30
2019-01-08T09:03:15.442Z,3.30
2019-01-08T09:06:22.429Z,2.98
2019-01-08T09:09:29.995Z,4.95
2019-01-08T09:12:36.979Z,4.37
2019-01-08T09:15:43.940Z,5.97
2019-01-08T09:18:50.911Z,4.97
2019-01-08T09:21:58.307Z,6.62
2019-01-08T09:25:05.459Z,4.55
2019-01-08T09:28:12.430Z,4.12
2019-01-08T09:31:19.578Z,3.40
2019-01-08T09:34:26.587Z,3.02
2019-01-08T09:37:33.927Z,4.83
2019-01-08T09:40:40.848Z,6.17
2019-01-08T09:43:47.857Z,6.42
2019-01-08T09:46:54.780Z,4.15
2019-01-08T09:50:01.863Z,6.47
2019-01-08T09:53:08.817Z,4.12
2019-01-08T09:56:15.897Z,5.78
2019-01-08T09:59:22.858Z,7.15
2019-01-08T10:02:29.992Z,6.35
2019-01-08T10:05:37.026Z,6.72
2019-01-08T10:08:44.055Z,4.03
2019-01-08T10:11:51.194Z,4.70
2019-01-08T10:14:59.104Z,6.95
2019-01-08T10:18:06.049Z,4.03
2019-01-08T10:21:13.262Z,6.47
2019-01-08T10:24:20.605Z,4.90
2019-01-08T10:27:27.652Z,4.17
2019-01-08T10:30:37.432Z,4.35
2019-01-08T10:33:44.455Z,4.60
2019-01-08T10:36:51.689Z,4.67
2019-01-08T10:40:01.402Z,3.37
2019-01-08T10:43:08.146Z,3.33
2019-01-08T10:46:15.139Z,3.58
2019-01-08T10:49:23.670Z,10.45
2019-01-08T10:52:32.849Z,3.27
2019-01-08T10:55:39.873Z,3.65
2019-01-08T10:58:46.865Z,5.47
2019-01-08T11:01:53.784Z,3.40
2019-01-08T11:05:00.787Z,3.05
2019-01-08T11:08:10.443Z,3.52
2019-01-08T12:38:01.897Z,4.15
2019-01-08T12:41:08.907Z,3.40
2019-01-08T12:44:15.555Z,2.47
2019-01-08T12:47:23.114Z,2.90
2019-01-08T12:50:30.281Z,2.70
2019-01-08T12:53:37.283Z,3.40
2019-01-08T12:56:44.190Z,2.00
2019-01-08T12:59:51.371Z,2.30
2019-01-08T13:02:58.305Z,1.90
2019-01-08T13:06:05.974Z,2.30
2019-01-08T13:09:12.844Z,2.50
2019-01-08T13:12:20.655Z,1.93
2019-01-08T13:15:27.346Z,1.93
2019-01-08T13:18:34.498Z,1.97
2019-01-08T13:21:41.398Z,2.30
2019-01-08T13:24:48.667Z,2.40
2019-01-08T13:27:55.390Z,2.07
2019-01-08T13:31:02.426Z,2.30
2019-01-08T13:34:09.429Z,2.87
2019-01-08T13:37:16.377Z,2.37
2019-01-08T13:40:23.394Z,2.60
2019-01-08T13:43:30.370Z,2.20
2019-01-08T13:46:37.844Z,1.80
2019-01-08T13:49:46.557Z,2.58
2019-01-08T13:52:53.426Z,2.60
2019-01-08T13:56:00.429Z,3.22
2019-01-08T13:59:07.342Z,3.55
2019-01-08T14:02:14.293Z,4.00
2019-01-08T14:05:22.252Z,4.05
2019-01-08T14:08:29.244Z,3.77
2019-01-08T14:11:37.103Z,2.60
2019-01-08T14:14:45.357Z,2.20
2019-01-08T14:17:52.558Z,2.50
2019-01-08T14:20:59.550Z,2.33
2019-01-08T14:24:06.528Z,2.30
2019-01-08T14:27:14.026Z,1.90
2019-01-08T14:30:20.751Z,2.40
2019-01-08T14:33:28.701Z,2.03
2019-01-08T14:36:36.380Z,1.80
2019-01-08T14:39:43.430Z,2.73
2019-01-08T14:42:50.341Z,2.70
2019-01-08T14:45:57.612Z,2.10
2019-01-08T14:49:04.325Z,2.77
2019-01-08T14:52:11.300Z,2.77
2019-01-08T14:55:18.207Z,2.97
2019-01-08T14:58:42.805Z,2.23
2019-01-08T15:01:51.970Z,2.30
2019-01-08T15:04:59.455Z,1.70
